EGTK/OXF METAR and TAF weather

Enter ICAO airport designator
Station Type Date Time Source
EGTK METAR 2022/01/26 13:50 UTC NOAA

EGTK 261350Z 26010KT 230V290 9999 SCT024 08/03 Q1032


Station Type Date Time Source
EGTK Decoded METAR 2022/01/26 13:50 UTC NOAA

Station name not available
Jan 26, 2022 - 08:50 AM EST / 2022.01.26 1350 UTC
Wind: from the W (260 degrees) at 12 MPH (10 KT) (direction variable):0
Visibility: greater than 7 mile(s):0
Sky conditions: partly cloudy
Temperature: 46 F (8 C)
Dew Point: 37 F (3 C)
Relative Humidity: 70%
Pressure (altimeter): 30.47 in. Hg (1032 hPa)
ob: EGTK 261350Z 26010KT 230V290 9999 SCT024 08/03 Q1032
cycle: 14

Station Type Date Time Source
EGTK TAF UTC NOAA

Error!

Example: see airport list